createdAt,value
2019-04-10T00:01:08.891Z,10.40
2019-04-10T00:03:40.392Z,10.50
2019-04-10T00:06:09.737Z,10.40
2019-04-10T00:08:40.029Z,10.40
2019-04-10T00:11:10.314Z,10.40
2019-04-10T00:13:40.708Z,10.20
2019-04-10T00:16:11.850Z,10.60
2019-04-10T00:18:44.238Z,10.50
2019-04-10T00:21:15.515Z,10.50
2019-04-10T00:23:47.099Z,10.30
2019-04-10T00:26:18.464Z,10.20
2019-04-10T00:28:49.744Z,10.30
2019-04-10T00:31:20.101Z,10.30
2019-04-10T00:33:51.385Z,10.20
2019-04-10T00:36:22.180Z,10.10
2019-04-10T00:38:53.887Z,10.00
2019-04-10T00:41:24.333Z,10.00
2019-04-10T00:43:55.251Z,10.10
2019-04-10T00:46:26.306Z,10.00
2019-04-10T00:48:56.727Z,10.10
2019-04-10T00:51:27.589Z,10.20
2019-04-10T00:53:58.055Z,10.10
2019-04-10T00:56:28.452Z,10.20
2019-04-10T00:59:01.500Z,10.20
2019-04-10T01:01:31.942Z,10.40
2019-04-10T01:04:02.764Z,10.20
2019-04-10T01:06:33.271Z,10.10
2019-04-10T01:09:04.714Z,10.00
2019-04-10T01:11:35.249Z,10.00
2019-04-10T01:14:06.018Z,10.00
2019-04-10T01:16:36.371Z,10.00
2019-04-10T01:19:07.837Z,10.10
2019-04-10T01:21:38.769Z,9.90
2019-04-10T01:24:09.163Z,9.80
2019-04-10T01:26:39.568Z,9.90
2019-04-10T01:29:10.021Z,10.00
2019-04-10T01:31:41.375Z,10.00
2019-04-10T01:34:11.706Z,9.90
2019-04-10T01:36:41.992Z,10.00
2019-04-10T01:39:19.329Z,9.80
2019-04-10T01:41:50.146Z,9.90
2019-04-10T01:44:20.677Z,9.90
2019-04-10T01:46:51.061Z,9.70
2019-04-10T01:49:21.788Z,9.70
2019-04-10T01:51:52.215Z,9.80
2019-04-10T01:54:22.787Z,9.80
2019-04-10T01:56:53.101Z,9.80
2019-04-10T01:59:25.623Z,9.90
2019-04-10T02:02:02.986Z,10.00
2019-04-10T02:04:33.583Z,9.80
2019-04-10T02:07:03.912Z,9.70
2019-04-10T02:09:35.090Z,9.50
2019-04-10T02:12:06.200Z,9.50
2019-04-10T02:14:36.686Z,9.50
2019-04-10T02:17:07.084Z,9.50
2019-04-10T02:19:38.465Z,9.60
2019-04-10T02:22:09.230Z,9.50
2019-04-10T02:24:39.557Z,9.50
2019-04-10T02:27:09.939Z,9.50
2019-04-10T02:29:40.281Z,9.50
2019-04-10T02:32:12.038Z,9.60
2019-04-10T02:34:43.786Z,9.40
2019-04-10T02:37:15.252Z,9.30
2019-04-10T02:39:48.439Z,9.30
2019-04-10T02:42:18.691Z,9.40
2019-04-10T02:44:50.350Z,9.20
2019-04-10T02:47:22.906Z,9.10
2019-04-10T02:49:54.512Z,9.20
2019-04-10T02:52:25.123Z,9.10
2019-04-10T02:54:55.450Z,9.10
2019-04-10T02:57:27.525Z,9.20
2019-04-10T03:00:00.893Z,9.10
2019-04-10T03:02:31.153Z,9.20
2019-04-10T03:05:02.613Z,9.20
2019-04-10T03:07:33.801Z,9.20
2019-04-10T03:10:15.259Z,9.10
2019-04-10T03:12:36.542Z,9.10
2019-04-10T03:15:09.640Z,9.10
2019-04-10T03:17:40.085Z,8.80
2019-04-10T03:20:10.689Z,8.90
2019-04-10T03:22:41.078Z,9.00
2019-04-10T03:25:11.540Z,9.00
2019-04-10T03:27:42.733Z,9.00
2019-04-10T03:30:15.282Z,9.10
2019-04-10T03:33:19.100Z,9.00
2019-04-10T03:35:48.088Z,9.10
2019-04-10T03:38:18.284Z,8.90
2019-04-10T03:40:48.727Z,9.00
2019-04-10T03:43:19.515Z,9.00
2019-04-10T03:45:49.865Z,9.00
2019-04-10T03:48:20.219Z,8.90
2019-04-10T03:50:50.655Z,9.00
2019-04-10T03:53:22.104Z,9.10
2019-04-10T03:55:53.646Z,8.80
2019-04-10T03:58:25.150Z,8.80
2019-04-10T04:00:55.743Z,8.90
2019-04-10T04:03:26.797Z,9.00
2019-04-10T04:05:57.509Z,9.00
2019-04-10T04:08:27.828Z,8.90
2019-04-10T04:10:59.118Z,8.80
2019-04-10T04:13:29.754Z,9.10
2019-04-10T04:16:00.299Z,9.30
2019-04-10T04:18:30.857Z,9.00
2019-04-10T04:21:01.516Z,9.10
2019-04-10T04:23:32.020Z,9.00
2019-04-10T04:26:03.065Z,8.90
2019-04-10T04:28:34.260Z,9.10
2019-04-10T04:31:05.304Z,9.20
2019-04-10T04:33:36.132Z,9.30
2019-04-10T04:36:06.439Z,9.20
2019-04-10T04:38:36.807Z,9.20
2019-04-10T04:41:07.206Z,9.10
2019-04-10T04:43:37.575Z,9.20
2019-04-10T04:46:08.036Z,9.00
2019-04-10T04:48:38.401Z,8.90
2019-04-10T04:51:09.009Z,9.00
2019-04-10T04:53:39.909Z,9.00
2019-04-10T04:56:11.422Z,9.00
2019-04-10T04:58:42.247Z,8.80
2019-04-10T05:01:12.865Z,8.80
2019-04-10T05:03:44.283Z,8.80
2019-04-10T05:06:14.797Z,8.80
2019-04-10T05:08:46.324Z,8.80
2019-04-10T05:11:16.769Z,8.90
2019-04-10T05:13:47.023Z,8.80
2019-04-10T05:16:18.548Z,8.50
2019-04-10T05:18:50.119Z,8.70
2019-04-10T05:21:21.325Z,8.90
2019-04-10T05:23:51.744Z,8.50
2019-04-10T05:26:27.821Z,8.70
2019-04-10T05:28:59.059Z,8.70
2019-04-10T05:31:29.876Z,8.70
2019-04-10T05:34:05.820Z,8.70
2019-04-10T05:37:07.533Z,8.70
2019-04-10T05:39:43.114Z,8.50
2019-04-10T05:42:10.628Z,8.60
2019-04-10T05:44:40.999Z,8.80
2019-04-10T05:47:11.837Z,8.80
2019-04-10T05:49:42.109Z,8.60
2019-04-10T05:52:12.688Z,8.50
2019-04-10T05:54:43.828Z,8.50
2019-04-10T05:57:14.450Z,8.40
2019-04-10T05:59:45.922Z,8.50
2019-04-10T06:02:16.297Z,8.50
2019-04-10T06:04:46.849Z,8.30
2019-04-10T06:07:17.133Z,8.30
2019-04-10T06:09:55.874Z,8.40
2019-04-10T06:12:20.319Z,8.50
2019-04-10T06:14:50.629Z,8.40
2019-04-10T06:17:20.936Z,8.30
2019-04-10T06:19:51.256Z,8.30
2019-04-10T06:22:22.565Z,8.30
2019-04-10T06:24:54.349Z,8.20
2019-04-10T06:27:24.956Z,8.10
2019-04-10T06:29:55.527Z,7.90
2019-04-10T06:32:25.942Z,8.10
2019-04-10T06:34:57.416Z,8.30
2019-04-10T06:37:28.333Z,8.20
2019-04-10T06:40:07.690Z,8.20
2019-04-10T06:42:35.101Z,8.20
2019-04-10T06:45:05.614Z,8.50
2019-04-10T06:47:36.175Z,8.50
2019-04-10T06:50:10.639Z,8.70
2019-04-10T06:52:41.034Z,8.50
2019-04-10T06:55:12.001Z,8.60
2019-04-10T06:57:49.180Z,8.80
2019-04-10T07:00:16.997Z,8.80
2019-04-10T07:02:47.358Z,8.70
2019-04-10T07:05:17.660Z,8.50
2019-04-10T07:07:53.609Z,8.50
2019-04-10T07:10:27.282Z,8.40
2019-04-10T07:12:53.275Z,8.50
2019-04-10T07:15:24.163Z,8.50
2019-04-10T07:17:55.614Z,8.30
2019-04-10T07:20:26.201Z,8.40
2019-04-10T07:22:56.994Z,8.30
2019-04-10T07:25:28.314Z,8.30
2019-04-10T07:27:58.565Z,8.60
2019-04-10T07:30:29.864Z,8.80
2019-04-10T07:33:01.334Z,8.60
2019-04-10T07:35:33.893Z,8.60
2019-04-10T07:38:03.847Z,8.60
2019-04-10T07:40:36.539Z,8.80
2019-04-10T07:43:06.557Z,9.10
2019-04-10T07:45:37.071Z,9.30
2019-04-10T07:48:08.722Z,9.50
2019-04-10T07:50:39.503Z,9.50
2019-04-10T07:53:10.525Z,9.70
2019-04-10T07:55:40.793Z,9.20
2019-04-10T07:58:11.237Z,9.30
2019-04-10T08:00:42.850Z,9.40
2019-04-10T08:03:13.257Z,9.60
2019-04-10T08:05:44.031Z,9.70
2019-04-10T08:08:14.394Z,10.00
2019-04-10T08:10:45.104Z,10.40
2019-04-10T08:13:16.142Z,10.80
2019-04-10T08:15:47.190Z,10.60
2019-04-10T08:18:19.287Z,10.20
2019-04-10T08:20:50.882Z,10.10
2019-04-10T08:23:21.808Z,10.40
2019-04-10T08:25:53.654Z,10.70
2019-04-10T08:28:24.203Z,11.10
2019-04-10T08:30:54.732Z,11.50
2019-04-10T08:33:25.994Z,11.40
2019-04-10T08:35:56.872Z,11.70
2019-04-10T08:38:28.061Z,11.80
2019-04-10T08:40:58.679Z,11.80
2019-04-10T08:43:29.595Z,11.90
2019-04-10T08:46:01.970Z,11.90
2019-04-10T08:48:33.225Z,12.60
2019-04-10T08:51:03.495Z,12.70
2019-04-10T08:53:34.139Z,12.50
2019-04-10T08:56:04.845Z,12.40
2019-04-10T08:58:35.137Z,12.10
2019-04-10T09:01:05.641Z,11.70
2019-04-10T09:03:37.164Z,11.50
2019-04-10T09:06:07.634Z,11.80
2019-04-10T09:08:39.103Z,11.60
2019-04-10T09:11:09.542Z,11.40
2019-04-10T09:13:40.958Z,11.70
2019-04-10T09:16:12.164Z,11.90
2019-04-10T09:18:42.673Z,12.20
2019-04-10T09:21:13.349Z,12.90
2019-04-10T09:23:50.245Z,13.50
2019-04-10T09:26:16.337Z,14.00
2019-04-10T09:28:46.800Z,13.80
2019-04-10T09:31:17.729Z,13.90
2019-04-10T09:33:48.192Z,14.00
2019-04-10T09:36:19.729Z,14.30
2019-04-10T09:38:50.783Z,14.50
2019-04-10T09:41:21.630Z,15.40
2019-04-10T09:43:51.990Z,15.30
2019-04-10T09:46:22.563Z,14.90
2019-04-10T09:48:53.293Z,14.80
2019-04-10T09:51:23.699Z,13.60
2019-04-10T09:53:54.167Z,13.10
2019-04-10T09:56:25.504Z,13.10
2019-04-10T09:58:56.734Z,12.90
2019-04-10T10:01:27.554Z,12.80
2019-04-10T10:03:59.194Z,13.90
2019-04-10T10:06:33.419Z,15.00
2019-04-10T10:09:01.761Z,16.10
2019-04-10T10:11:32.443Z,16.20
2019-04-10T10:14:04.052Z,16.30
2019-04-10T10:16:35.779Z,16.00
2019-04-10T10:19:06.366Z,16.10
2019-04-10T10:21:36.684Z,15.70
2019-04-10T10:24:07.122Z,15.60
2019-04-10T10:26:37.489Z,15.90
2019-04-10T10:29:09.038Z,15.70
2019-04-10T10:31:40.232Z,15.70
2019-04-10T10:34:10.745Z,15.30
2019-04-10T10:36:46.066Z,15.70
2019-04-10T10:39:19.648Z,16.10
2019-04-10T10:41:51.114Z,16.20
2019-04-10T10:44:21.875Z,16.30
2019-04-10T10:46:52.694Z,16.10
2019-04-10T10:49:24.330Z,15.30
2019-04-10T10:51:55.194Z,14.50
2019-04-10T10:54:26.835Z,13.80
2019-04-10T10:56:58.490Z,13.80
2019-04-10T10:59:29.419Z,13.90
2019-04-10T11:02:00.246Z,13.80
2019-04-10T11:04:31.585Z,13.70
2019-04-10T11:07:02.694Z,13.80
2019-04-10T11:09:34.135Z,13.70
2019-04-10T11:12:06.749Z,13.90
2019-04-10T11:14:37.593Z,13.60
2019-04-10T11:17:07.891Z,13.40
2019-04-10T11:19:39.361Z,13.30
2019-04-10T11:22:12.690Z,13.40
2019-04-10T11:24:43.406Z,13.30
2019-04-10T11:27:15.979Z,13.40
2019-04-10T11:29:46.862Z,13.50
2019-04-10T11:32:17.608Z,13.60
2019-04-10T11:34:49.328Z,13.40
2019-04-10T11:39:51.970Z,13.70
2019-04-10T11:42:22.636Z,14.10
2019-04-10T11:44:54.467Z,14.20
2019-04-10T11:47:26.759Z,13.90
2019-04-10T11:49:58.861Z,13.50
2019-04-10T11:55:10.535Z,13.30
2019-04-10T11:57:34.953Z,13.50
2019-04-10T12:00:12.070Z,13.80
2019-04-10T12:02:42.424Z,14.00
2019-04-10T12:05:18.533Z,13.90
2019-04-10T12:12:48.540Z,13.80
2019-04-10T12:15:18.905Z,13.80
2019-04-10T12:17:49.747Z,14.00
2019-04-10T12:20:20.907Z,14.30
2019-04-10T12:22:52.371Z,13.80
2019-04-10T12:25:22.958Z,13.80
2019-04-10T12:27:53.563Z,13.90
2019-04-10T12:30:24.051Z,13.90
2019-04-10T12:32:54.815Z,14.00
2019-04-10T12:35:25.281Z,14.10
2019-04-10T12:38:02.190Z,14.20
2019-04-10T12:40:28.704Z,13.90
2019-04-10T12:42:59.038Z,13.80
2019-04-10T12:45:30.497Z,13.90
2019-04-10T12:48:02.058Z,13.80
2019-04-10T12:50:32.825Z,13.90
2019-04-10T12:53:03.304Z,14.10
2019-04-10T12:55:34.636Z,14.10
2019-04-10T12:58:10.869Z,13.80
2019-04-10T13:00:38.445Z,13.80
2019-04-10T13:03:09.255Z,14.00
2019-04-10T13:05:39.597Z,13.90
2019-04-10T13:08:17.087Z,13.90
2019-04-10T13:10:43.949Z,13.90
2019-04-10T13:13:15.965Z,14.00
2019-04-10T13:15:47.696Z,14.00
2019-04-10T13:18:18.530Z,14.20
2019-04-10T13:20:48.954Z,14.30
2019-04-10T13:23:20.452Z,14.40
2019-04-10T13:25:58.093Z,14.40
2019-04-10T13:28:23.401Z,14.50
2019-04-10T13:30:56.568Z,14.70
2019-04-10T13:33:26.847Z,14.40
2019-04-10T13:35:57.621Z,14.30
2019-04-10T13:38:32.394Z,14.40
2019-04-10T13:41:01.920Z,14.40
2019-04-10T13:43:32.381Z,14.50
2019-04-10T13:46:03.107Z,14.50
2019-04-10T13:48:33.497Z,14.30
2019-04-10T13:51:03.752Z,14.50
2019-04-10T13:53:34.277Z,14.40
2019-04-10T13:56:06.578Z,14.30
2019-04-10T13:58:37.171Z,14.30
2019-04-10T14:01:11.272Z,14.50
2019-04-10T14:03:43.788Z,14.50
2019-04-10T14:06:13.751Z,14.40
2019-04-10T14:09:04.462Z,14.40
2019-04-10T14:11:17.402Z,14.40
2019-04-10T14:13:48.384Z,14.50
2019-04-10T14:16:18.727Z,14.50
2019-04-10T14:18:49.095Z,14.30
2019-04-10T14:21:20.661Z,14.30
2019-04-10T14:23:51.519Z,14.30
2019-04-10T14:26:41.922Z,14.40
2019-04-10T14:29:07.804Z,14.40
2019-04-10T14:31:46.705Z,14.20
2019-04-10T14:34:18.822Z,14.10
2019-04-10T14:36:49.578Z,14.20
2019-04-10T14:39:21.474Z,14.10
2019-04-10T14:41:53.842Z,14.10
2019-04-10T14:44:24.408Z,14.00
2019-04-10T14:46:55.131Z,14.00
2019-04-10T14:49:25.689Z,14.10
2019-04-10T14:51:56.800Z,14.20
2019-04-10T14:54:27.991Z,14.10
2019-04-10T14:56:58.806Z,13.90
2019-04-10T14:59:29.385Z,13.90
2019-04-10T15:02:00.063Z,14.00
2019-04-10T15:04:31.231Z,13.90
2019-04-10T15:07:01.850Z,13.60
2019-04-10T15:09:32.275Z,13.60
2019-04-10T15:12:04.964Z,13.60
2019-04-10T15:14:35.487Z,13.50
2019-04-10T15:17:07.968Z,13.70
2019-04-10T15:19:38.584Z,13.60
2019-04-10T15:22:09.510Z,13.50
2019-04-10T15:24:40.175Z,13.40
2019-04-10T15:27:11.310Z,13.40
2019-04-10T15:29:42.980Z,13.40
2019-04-10T15:32:14.575Z,13.40
2019-04-10T15:34:46.042Z,13.40
2019-04-10T15:37:17.183Z,13.40
2019-04-10T15:39:48.442Z,13.40
2019-04-10T15:42:19.749Z,13.30
2019-04-10T15:44:50.331Z,13.20
2019-04-10T15:47:22.923Z,13.20
2019-04-10T15:49:53.544Z,13.30
2019-04-10T15:52:23.951Z,13.50
2019-04-10T15:54:55.344Z,13.40
2019-04-10T15:57:26.940Z,13.10
2019-04-10T15:59:57.448Z,12.90
2019-04-10T16:02:27.974Z,12.90
2019-04-10T16:04:59.374Z,12.90
2019-04-10T16:07:30.874Z,12.80
2019-04-10T16:10:19.003Z,12.80
2019-04-10T16:12:49.861Z,12.90
2019-04-10T16:15:20.257Z,13.00
2019-04-10T16:17:58.829Z,12.90
2019-04-10T16:20:31.570Z,12.80
2019-04-10T16:23:20.304Z,12.80
2019-04-10T16:25:52.562Z,12.60
2019-04-10T16:28:23.581Z,12.50
2019-04-10T16:30:55.115Z,12.60
2019-04-10T16:33:27.394Z,12.70
2019-04-10T16:35:58.920Z,12.50
2019-04-10T16:38:29.536Z,12.40
2019-04-10T16:41:00.481Z,12.50
2019-04-10T16:43:30.907Z,12.50
2019-04-10T16:46:01.222Z,12.50
2019-04-10T16:48:31.937Z,12.40
2019-04-10T16:51:02.291Z,12.20
2019-04-10T16:53:33.916Z,12.20
2019-04-10T16:56:05.274Z,12.30
2019-04-10T16:58:36.689Z,12.20
2019-04-10T17:01:08.357Z,12.30
2019-04-10T17:03:40.082Z,12.20
2019-04-10T17:06:10.511Z,12.10
2019-04-10T17:08:40.815Z,12.10
2019-04-10T17:11:12.530Z,12.10
2019-04-10T17:13:43.501Z,12.00
2019-04-10T17:16:15.676Z,12.10
2019-04-10T17:18:47.493Z,12.00
2019-04-10T17:21:18.465Z,11.90
2019-04-10T17:23:51.137Z,11.80
2019-04-10T17:26:22.527Z,11.80
2019-04-10T17:28:52.987Z,11.80
2019-04-10T17:31:24.635Z,11.60
2019-04-10T17:33:55.008Z,11.70
2019-04-10T17:36:25.686Z,11.60
2019-04-10T17:38:56.024Z,11.40
2019-04-10T17:41:26.349Z,11.40
2019-04-10T17:43:58.107Z,11.40
2019-04-10T17:46:29.142Z,11.40
2019-04-10T17:48:59.365Z,11.40
2019-04-10T17:51:30.314Z,11.40
2019-04-10T17:54:02.130Z,11.30
2019-04-10T17:56:32.646Z,11.30
2019-04-10T17:59:03.047Z,11.00
2019-04-10T18:01:34.756Z,11.10
2019-04-10T18:04:05.680Z,11.00
2019-04-10T18:06:36.295Z,10.90
2019-04-10T18:09:09.802Z,10.80
2019-04-10T18:11:40.175Z,10.70
2019-04-10T18:14:11.180Z,10.70
2019-04-10T18:16:42.225Z,10.70
2019-04-10T18:19:15.350Z,10.70
2019-04-10T18:21:45.928Z,10.50
2019-04-10T18:24:16.240Z,10.50
2019-04-10T18:26:49.555Z,10.40
2019-04-10T18:29:19.117Z,10.30
2019-04-10T18:31:50.965Z,10.30
2019-04-10T18:34:21.808Z,10.10
2019-04-10T18:36:52.464Z,10.10
2019-04-10T18:39:24.102Z,10.10
2019-04-10T18:41:56.087Z,10.10
2019-04-10T18:44:26.917Z,10.00
2019-04-10T18:46:57.426Z,9.90
2019-04-10T18:49:35.772Z,9.90
2019-04-10T18:52:07.472Z,10.00
2019-04-10T18:54:37.928Z,9.70
2019-04-10T18:57:09.341Z,9.70
2019-04-10T19:00:18.647Z,9.70
2019-04-10T19:03:13.627Z,9.60
2019-04-10T19:05:47.757Z,9.70
2019-04-10T19:08:18.087Z,9.60
2019-04-10T19:10:48.532Z,9.50
2019-04-10T19:13:18.927Z,9.50
2019-04-10T19:15:49.320Z,9.30
2019-04-10T19:18:19.731Z,9.30
2019-04-10T19:20:51.436Z,9.30
2019-04-10T19:23:22.728Z,9.20
2019-04-10T19:25:54.708Z,8.90
2019-04-10T19:28:32.285Z,8.90
2019-04-10T19:31:11.885Z,8.90
2019-04-10T19:33:37.687Z,8.90
2019-04-10T19:36:08.022Z,8.80
2019-04-10T19:38:38.393Z,8.80
2019-04-10T19:41:23.342Z,8.90
2019-04-10T19:43:43.274Z,8.90
2019-04-10T19:46:13.965Z,8.70
2019-04-10T19:48:47.252Z,8.70
2019-04-10T19:51:16.949Z,8.70
2019-04-10T19:54:17.806Z,8.70
2019-04-10T19:56:48.881Z,8.60
2019-04-10T19:59:19.333Z,8.50
2019-04-10T20:01:50.667Z,8.50
2019-04-10T20:04:21.213Z,8.50
2019-04-10T20:06:52.349Z,8.50
2019-04-10T20:09:24.191Z,8.50
2019-04-10T20:11:57.191Z,8.50
2019-04-10T20:14:28.367Z,8.50
2019-04-10T20:16:59.732Z,8.40
2019-04-10T20:19:30.737Z,8.30
2019-04-10T20:22:01.117Z,8.30
2019-04-10T20:24:32.610Z,8.30
2019-04-10T20:27:03.535Z,8.30
2019-04-10T20:29:35.046Z,8.40
2019-04-10T20:32:05.904Z,8.40
2019-04-10T20:34:37.777Z,8.30
2019-04-10T20:37:09.871Z,8.10
2019-04-10T20:39:41.219Z,8.10
2019-04-10T20:42:11.892Z,8.10
2019-04-10T20:44:43.038Z,8.10
2019-04-10T20:47:13.383Z,8.10
2019-04-10T20:49:44.698Z,8.10
2019-04-10T20:52:15.108Z,8.10
2019-04-10T20:54:45.434Z,8.00
2019-04-10T20:57:15.858Z,8.10
2019-04-10T20:59:46.133Z,8.10
2019-04-10T21:02:16.506Z,8.00
2019-04-10T21:04:54.538Z,8.00
2019-04-10T21:07:19.860Z,7.90
2019-04-10T21:09:50.324Z,8.00
2019-04-10T21:12:21.426Z,7.80
2019-04-10T21:14:52.559Z,7.80
2019-04-10T21:17:23.022Z,7.70
2019-04-10T21:19:53.815Z,7.80
2019-04-10T21:22:24.604Z,7.80
2019-04-10T21:24:56.194Z,7.80
2019-04-10T21:27:26.634Z,7.70
2019-04-10T21:30:18.637Z,7.80
2019-04-10T21:32:58.313Z,7.80
2019-04-10T21:35:32.909Z,7.80
2019-04-10T21:38:04.694Z,7.70
2019-04-10T21:40:35.354Z,7.70
2019-04-10T21:43:06.112Z,7.80
2019-04-10T21:45:37.034Z,7.60
2019-04-10T21:48:08.500Z,7.60
2019-04-10T21:50:39.815Z,7.50
2019-04-10T21:53:10.231Z,7.70
2019-04-10T21:55:41.691Z,7.10
2019-04-10T21:58:13.103Z,7.10
2019-04-10T22:01:13.431Z,7.20
2019-04-10T22:03:44.196Z,7.40
2019-04-10T22:06:45.555Z,7.30
2019-04-10T22:09:34.977Z,7.30
2019-04-10T22:12:24.036Z,7.30
2019-04-10T22:14:45.981Z,7.10
2019-04-10T22:17:17.128Z,7.10
2019-04-10T22:19:47.505Z,7.10
2019-04-10T22:22:18.246Z,7.10
2019-04-10T22:24:48.985Z,7.10
2019-04-10T22:27:19.563Z,7.10
2019-04-10T22:32:25.464Z,7.00
2019-04-10T22:34:56.927Z,7.20
2019-04-10T22:37:27.902Z,7.10
2019-04-10T22:39:58.736Z,6.90
2019-04-10T22:42:40.164Z,7.00
2019-04-10T22:45:02.600Z,7.00
2019-04-10T22:47:33.958Z,7.00
2019-04-10T22:50:04.971Z,7.00
2019-04-10T22:52:35.353Z,6.90
2019-04-10T22:55:07.117Z,6.80
2019-04-10T22:57:39.734Z,6.80
2019-04-10T23:00:12.462Z,6.60
2019-04-10T23:02:42.837Z,6.70
2019-04-10T23:05:16.240Z,6.70
2019-04-10T23:07:47.213Z,6.60
2019-04-10T23:10:19.136Z,6.60
2019-04-10T23:12:58.114Z,6.60
2019-04-10T23:15:21.707Z,6.60
2019-04-10T23:17:52.852Z,6.60
2019-04-10T23:20:23.781Z,6.60
2019-04-10T23:22:54.795Z,6.50
2019-04-10T23:25:25.242Z,6.50
2019-04-10T23:27:56.413Z,6.50
2019-04-10T23:30:26.998Z,6.60
2019-04-10T23:32:57.663Z,6.40
2019-04-10T23:35:27.930Z,6.40
2019-04-10T23:37:59.505Z,6.50
2019-04-10T23:40:29.862Z,6.50
2019-04-10T23:43:07.711Z,6.40
2019-04-10T23:45:33.508Z,6.30
2019-04-10T23:48:04.553Z,6.20
2019-04-10T23:50:36.434Z,6.10
2019-04-10T23:53:06.958Z,6.20
2019-04-10T23:55:37.853Z,6.20
2019-04-10T23:58:09.399Z,6.00
